Time;durP1;ratioP1;P1;durP2;ratioP2;P2;SDS_P1;SDS_P2;PMS_P1;PMS_P2;Temp;Humidity;BMP_temperature;BMP_pressure;BME280_temperature;BME280_humidity;BME280_pressure;Samples;Min_cycle;Max_cycle;Signal;HPM_P1;HPM_P2
2024/01/30 00:00:31;;;;;;;52.72;17.77;;;;;;;-3.49;nan;102922.69;4969431;28;20661;-70
2024/01/30 00:02:57;;;;;;;43.92;16.77;;;;;;;-3.50;nan;102931.28;4978676;28;20022;-70
2024/01/30 00:05:22;;;;;;;45.85;17.50;;;;;;;-3.48;nan;102934.63;4980020;28;20026;-71
2024/01/30 00:07:47;;;;;;;51.50;18.35;;;;;;;-3.84;nan;102886.47;4979747;28;20062;-71
2024/01/30 00:10:13;;;;;;;63.85;19.25;;;;;;;-3.83;nan;102895.91;4979998;28;20031;-70
2024/01/30 00:12:38;;;;;;;54.65;19.02;;;;;;;-3.54;nan;102934.94;4976808;28;20627;-70
2024/01/30 00:15:04;;;;;;;53.55;16.83;;;;;;;-3.56;nan;102950.44;4960540;28;20134;-70
2024/01/30 00:17:30;;;;;;;48.38;17.70;;;;;;;-3.58;nan;102946.28;4979010;28;20069;-70
2024/01/30 00:19:56;;;;;;;56.10;18.13;;;;;;;-3.77;nan;102931.63;4979357;28;20038;-70
2024/01/30 00:22:21;;;;;;;48.17;17.58;;;;;;;-3.63;nan;102949.06;4965031;28;20050;-71
2024/01/30 00:24:47;;;;;;;50.40;17.33;;;;;;;-3.75;nan;102929.00;4959082;28;20081;-70
2024/01/30 00:27:12;;;;;;;47.20;17.60;;;;;;;-3.59;nan;102950.59;4983598;28;20046;-71
2024/01/30 00:29:38;;;;;;;50.92;18.13;;;;;;;-3.67;nan;102943.19;4969889;28;20026;-71
2024/01/30 00:32:03;;;;;;;55.85;16.52;;;;;;;-3.68;nan;102959.56;4981278;28;20019;-70
2024/01/30 00:34:29;;;;;;;56.85;17.40;;;;;;;-3.72;nan;102949.47;4975861;28;20409;-70
2024/01/30 00:36:54;;;;;;;46.40;17.35;;;;;;;-3.74;nan;102952.09;4981177;28;20367;-71
2024/01/30 00:39:20;;;;;;;66.35;18.90;;;;;;;-3.75;nan;102952.19;4978702;28;20145;-70
2024/01/30 00:41:45;;;;;;;67.97;17.95;;;;;;;-3.70;nan;102955.38;4978813;28;20046;-70
2024/01/30 00:44:11;;;;;;;44.72;18.67;;;;;;;-3.75;nan;102950.44;4981356;28;20034;-70
2024/01/30 00:46:36;;;;;;;67.78;17.67;;;;;;;-3.60;nan;102974.66;4959842;28;20026;-71
2024/01/30 00:49:02;;;;;;;56.15;18.85;;;;;;;-3.59;nan;102963.47;4964083;28;20495;-71
2024/01/30 00:51:29;;;;;;;53.60;19.52;;;;;;;-3.54;nan;102965.84;4979076;28;20050;-71
2024/01/30 00:53:55;;;;;;;62.95;18.40;;;;;;;-3.55;nan;102959.00;4959771;28;20030;-71
2024/01/30 00:56:20;;;;;;;76.05;19.85;;;;;;;-3.52;nan;102972.59;4979330;28;20019;-70
2024/01/30 00:58:46;;;;;;;105.72;20.10;;;;;;;-3.58;nan;102947.09;4982941;28;20050;-70
2024/01/30 01:01:12;;;;;;;74.93;18.95;;;;;;;-3.46;nan;102971.47;4980925;28;20410;-70
2024/01/30 01:03:37;;;;;;;131.27;19.35;;;;;;;-3.44;nan;102964.50;4986169;28;20073;-70
2024/01/30 01:06:03;;;;;;;102.72;20.13;;;;;;;-3.49;nan;102951.00;4971533;28;20482;-71
2024/01/30 01:08:28;;;;;;;90.63;20.73;;;;;;;-3.45;nan;102957.66;4989186;28;20081;-69
2024/01/30 01:10:54;;;;;;;93.32;22.83;;;;;;;-3.45;nan;102960.25;4985511;28;20088;-71
2024/01/30 01:13:19;;;;;;;127.13;21.70;;;;;;;-3.38;nan;102973.69;4984352;28;20030;-71
2024/01/30 01:15:45;;;;;;;87.30;20.33;;;;;;;-3.33;nan;102972.56;4968552;28;20467;-71
2024/01/30 01:18:10;;;;;;;66.70;21.15;;;;;;;-3.29;nan;102970.69;4978940;28;20026;-71
2024/01/30 01:20:36;;;;;;;90.97;22.55;;;;;;;-3.33;nan;102962.25;4974172;28;20116;-70
2024/01/30 01:23:01;;;;;;;68.68;20.77;;;;;;;-3.65;nan;102897.63;4980345;28;20026;-71
2024/01/30 01:25:27;;;;;;;72.82;23.45;;;;;;;-3.33;nan;102949.38;4977008;28;20031;-72
2024/01/30 01:27:52;;;;;;;61.45;21.38;;;;;;;-3.23;nan;102958.38;4966286;28;20034;-70
2024/01/30 01:30:21;;;;;;;76.20;21.80;;;;;;;-3.24;nan;102942.97;4979598;28;20047;-72
2024/01/30 01:32:54;;;;;;;75.45;22.70;;;;;;;-3.11;nan;102953.53;4978946;28;20033;-71
2024/01/30 01:35:26;;;;;;;57.58;22.00;;;;;;;-3.10;nan;102958.63;4977252;28;20027;-70
2024/01/30 01:37:54;;;;;;;68.07;21.83;;;;;;;-3.22;nan;102951.47;4976237;28;20057;-71
2024/01/30 01:40:23;;;;;;;63.30;20.95;;;;;;;-3.14;nan;102953.69;4974105;28;20030;-71
2024/01/30 01:42:51;;;;;;;54.78;20.88;;;;;;;-3.10;nan;102958.63;4977400;28;20692;-71
2024/01/30 01:45:17;;;;;;;49.83;19.92;;;;;;;-3.09;nan;102967.19;4978925;28;20092;-71
2024/01/30 01:47:45;;;;;;;57.70;21.35;;;;;;;-3.04;nan;102972.94;4977336;28;20015;-71
2024/01/30 01:50:12;;;;;;;55.22;21.88;;;;;;;-3.08;nan;102967.13;4977451;28;20088;-71
2024/01/30 01:52:40;;;;;;;56.58;21.58;;;;;;;-3.04;nan;102970.38;4967423;28;20022;-71
2024/01/30 01:55:06;;;;;;;62.85;22.27;;;;;;;-3.01;nan;102977.97;4978829;28;20107;-71
2024/01/30 01:57:31;;;;;;;53.63;21.65;;;;;;;-3.11;nan;102956.97;4978486;28;20512;-71
2024/01/30 01:59:58;;;;;;;64.07;20.35;;;;;;;-3.02;nan;102972.00;4976304;28;20030;-71
2024/01/30 02:02:25;;;;;;;55.10;20.67;;;;;;;-3.03;nan;102961.75;4979942;28;20031;-71
2024/01/30 02:04:51;;;;;;;55.45;20.52;;;;;;;-2.98;nan;102964.94;4978713;28;20109;-71
2024/01/30 02:07:17;;;;;;;58.08;20.40;;;;;;;-2.97;nan;102965.75;4984544;28;20122;-71
2024/01/30 02:09:43;;;;;;;62.03;20.35;;;;;;;-3.02;nan;102953.09;4983871;28;20077;-71
2024/01/30 02:12:09;;;;;;;70.65;20.33;;;;;;;-2.93;nan;102964.72;4985856;28;20495;-71
2024/01/30 02:14:45;;;;;;;53.35;19.35;;;;;;;-2.97;nan;102973.50;4981793;28;20101;-71
2024/01/30 02:17:10;;;;;;;53.00;18.75;;;;;;;-3.09;nan;102946.56;4980676;28;20496;-69
2024/01/30 02:19:35;;;;;;;57.42;18.70;;;;;;;-2.90;nan;102977.47;4964294;28;20069;-70
2024/01/30 02:22:01;;;;;;;47.72;18.55;;;;;;;-3.15;nan;102931.41;4963566;28;20019;-71
2024/01/30 02:24:26;;;;;;;57.97;18.08;;;;;;;-2.94;nan;102960.47;4962869;28;20538;-71
2024/01/30 02:26:52;;;;;;;56.97;18.85;;;;;;;-2.96;nan;102965.69;4982040;28;20026;-71
2024/01/30 02:29:17;;;;;;;50.70;19.45;;;;;;;-2.97;nan;102958.03;4984388;28;20431;-71
2024/01/30 02:31:42;;;;;;;46.97;19.00;;;;;;;-2.95;nan;102962.19;4961166;28;20038;-71
2024/01/30 02:34:08;;;;;;;49.10;18.50;;;;;;;-2.91;nan;102960.34;4979957;28;20023;-69
2024/01/30 02:36:33;;;;;;;46.90;19.38;;;;;;;-2.95;nan;102951.06;4970592;28;20019;-70
2024/01/30 02:38:59;;;;;;;65.50;19.73;;;;;;;-2.84;nan;102975.44;4978022;28;20038;-71
2024/01/30 02:41:24;;;;;;;59.28;19.52;;;;;;;-2.83;nan;102977.09;4983332;28;20027;-70
2024/01/30 02:43:50;;;;;;;44.50;18.60;;;;;;;-2.92;nan;102962.06;4971877;28;20031;-69
2024/01/30 02:46:15;;;;;;;47.15;18.55;;;;;;;-2.95;nan;102951.88;4979770;28;20030;-71
2024/01/30 02:48:40;;;;;;;50.78;20.08;;;;;;;-2.86;nan;102961.75;4978988;28;20028;-70
2024/01/30 02:51:06;;;;;;;61.25;19.63;;;;;;;-2.81;nan;102971.84;4964836;28;20038;-69
2024/01/30 02:53:31;;;;;;;55.97;20.90;;;;;;;-2.85;nan;102967.75;4978470;28;20672;-69
2024/01/30 02:55:57;;;;;;;48.17;19.58;;;;;;;-2.83;nan;102971.09;4980454;28;20605;-70
2024/01/30 02:58:22;;;;;;;45.80;18.98;;;;;;;-2.88;nan;102967.91;4979425;28;20046;-70
2024/01/30 03:00:48;;;;;;;46.40;18.90;;;;;;;-2.87;nan;102973.00;4982077;28;20026;-70
2024/01/30 03:03:13;;;;;;;47.90;18.80;;;;;;;-2.88;nan;102968.72;4983139;28;20400;-71
2024/01/30 03:05:38;;;;;;;47.00;19.15;;;;;;;-2.98;nan;102953.78;4979375;28;20026;-70
2024/01/30 03:08:05;;;;;;;52.30;19.98;;;;;;;-2.85;nan;102971.19;4964408;28;20065;-70
2024/01/30 03:10:30;;;;;;;48.15;20.63;;;;;;;-2.92;nan;102953.47;4971862;28;20035;-70
2024/01/30 03:12:55;;;;;;;51.30;20.33;;;;;;;-2.90;nan;102959.41;4981017;28;20049;-69
2024/01/30 03:15:21;;;;;;;54.50;21.20;;;;;;;-2.89;nan;102954.19;4979343;28;20030;-71
2024/01/30 03:17:46;;;;;;;57.55;21.40;;;;;;;-2.89;nan;102955.94;4981094;28;20039;-70
2024/01/30 03:20:12;;;;;;;52.38;21.70;;;;;;;-3.01;nan;102939.31;4980227;28;20026;-70
2024/01/30 03:22:37;;;;;;;50.58;21.02;;;;;;;-3.03;nan;102935.97;4978742;28;20034;-71
2024/01/30 03:25:03;;;;;;;52.65;20.35;;;;;;;-2.96;nan;102939.91;4980729;28;20030;-71
2024/01/30 03:27:28;;;;;;;46.67;19.63;;;;;;;-2.94;nan;102952.75;4978952;28;20026;-75
2024/01/30 03:29:54;;;;;;;50.00;20.63;;;;;;;-2.97;nan;102945.97;4980755;28;20058;-74
2024/01/30 03:32:19;;;;;;;59.17;23.48;;;;;;;-2.95;nan;102951.88;4982549;28;20030;-74
2024/01/30 03:34:45;;;;;;;63.75;25.80;;;;;;;-3.06;nan;102938.69;4980176;28;20109;-75
2024/01/30 03:37:10;;;;;;;62.63;25.42;;;;;;;-2.98;nan;102959.78;4980992;28;20046;-76
2024/01/30 03:39:36;;;;;;;55.88;23.13;;;;;;;-2.98;nan;102954.63;4980318;28;20030;-75
2024/01/30 03:42:02;;;;;;;52.20;22.70;;;;;;;-3.02;nan;102953.94;4980617;28;20030;-75
2024/01/30 03:44:27;;;;;;;53.58;23.23;;;;;;;-3.14;nan;102939.03;4973856;28;20112;-75
2024/01/30 03:46:53;;;;;;;59.22;24.02;;;;;;;-3.37;nan;102903.25;4977596;28;20031;-75
2024/01/30 03:49:18;;;;;;;52.33;22.33;;;;;;;-3.17;nan;102940.94;4977655;28;20022;-75
2024/01/30 03:51:44;;;;;;;48.72;21.80;;;;;;;-3.34;nan;102921.94;4977751;28;20134;-75
2024/01/30 03:54:09;;;;;;;50.50;21.10;;;;;;;-3.17;nan;102953.81;4982254;28;20069;-75
2024/01/30 03:56:35;;;;;;;49.10;21.52;;;;;;;-3.16;nan;102945.19;4982779;28;20018;-75
2024/01/30 03:59:02;;;;;;;46.00;20.40;;;;;;;-3.16;nan;102952.91;4977988;28;20042;-75
2024/01/30 04:01:28;;;;;;;46.40;21.27;;;;;;;-3.14;nan;102964.81;4974491;28;20035;-76
2024/01/30 04:03:53;;;;;;;50.85;21.05;;;;;;;-3.19;nan;102955.63;4977501;28;20019;-75
2024/01/30 04:06:19;;;;;;;45.72;20.63;;;;;;;-3.23;nan;102958.38;4976886;28;20037;-76
2024/01/30 04:08:44;;;;;;;51.03;22.20;;;;;;;-3.18;nan;102975.34;4980708;28;20035;-75
2024/01/30 04:11:10;;;;;;;59.00;22.80;;;;;;;-3.30;nan;102967.28;4979494;28;20105;-76
2024/01/30 04:13:35;;;;;;;45.88;20.35;;;;;;;-3.24;nan;102981.63;4979242;28;20034;-71
2024/01/30 04:16:02;;;;;;;47.35;19.98;;;;;;;-3.37;nan;102968.47;4979483;28;20650;-71
2024/01/30 04:18:28;;;;;;;45.38;19.17;;;;;;;-3.47;nan;102954.31;4977944;28;20073;-71
2024/01/30 04:20:54;;;;;;;42.97;20.30;;;;;;;-3.48;nan;102957.81;4977001;28;20027;-70
2024/01/30 04:23:19;;;;;;;46.85;20.85;;;;;;;-3.44;nan;102980.78;4977439;28;20026;-71
2024/01/30 04:25:44;;;;;;;46.15;21.27;;;;;;;-3.45;nan;102986.00;4979065;28;20085;-71
2024/01/30 04:28:11;;;;;;;49.58;21.80;;;;;;;-3.51;nan;102978.56;4978383;28;20014;-71
2024/01/30 04:30:37;;;;;;;48.47;21.95;;;;;;;-3.48;nan;102984.41;4974253;28;20077;-71
2024/01/30 04:33:03;;;;;;;48.05;21.13;;;;;;;-3.52;nan;102984.59;4961720;28;20023;-72
2024/01/30 04:35:29;;;;;;;44.22;20.08;;;;;;;-3.64;nan;102975.69;4958999;28;20041;-70
2024/01/30 04:37:54;;;;;;;52.42;21.77;;;;;;;-3.68;nan;102980.16;4981381;28;20053;-71
2024/01/30 04:40:21;;;;;;;45.15;20.40;;;;;;;-3.67;nan;102986.13;4978932;28;20551;-70
2024/01/30 04:42:46;;;;;;;48.42;21.35;;;;;;;-3.68;nan;102987.06;4978568;28;20021;-70
2024/01/30 04:45:12;;;;;;;50.80;21.70;;;;;;;-3.76;nan;102982.25;4977018;28;20023;-70
2024/01/30 04:47:38;;;;;;;53.15;20.77;;;;;;;-3.73;nan;102994.97;4976900;28;20034;-70
2024/01/30 04:50:05;;;;;;;55.47;22.27;;;;;;;-3.74;nan;102989.88;4976001;28;20059;-70
2024/01/30 04:52:30;;;;;;;55.25;23.73;;;;;;;-3.77;nan;102982.31;4967062;28;20522;-70
2024/01/30 04:54:56;;;;;;;50.70;21.73;;;;;;;-3.78;nan;102986.63;4977150;28;20040;-70
2024/01/30 04:57:21;;;;;;;49.00;21.65;;;;;;;-3.66;nan;103005.84;4993576;28;20043;-69
2024/01/30 04:59:46;;;;;;;49.42;21.27;;;;;;;-3.74;nan;103001.00;4996294;28;20029;-70
2024/01/30 05:02:12;;;;;;;44.13;20.05;;;;;;;-3.76;nan;102991.69;4994894;28;20026;-71
2024/01/30 05:04:37;;;;;;;46.03;19.90;;;;;;;-4.04;nan;102943.16;4991574;28;20053;-70
2024/01/30 05:07:03;;;;;;;42.60;18.02;;;;;;;-3.71;nan;103000.03;4994466;28;20034;-71
2024/01/30 05:09:29;;;;;;;44.13;19.67;;;;;;;-3.75;nan;102993.38;4977748;28;20034;-70
2024/01/30 05:11:54;;;;;;;39.30;17.60;;;;;;;-3.75;nan;102991.63;4978445;28;20121;-71
2024/01/30 05:14:20;;;;;;;39.15;17.48;;;;;;;-3.75;nan;102996.78;4979337;28;20078;-71
2024/01/30 05:16:46;;;;;;;40.05;16.70;;;;;;;-3.82;nan;102977.34;4965377;28;20018;-71
2024/01/30 05:19:14;;;;;;;37.50;16.38;;;;;;;-3.71;nan;102998.31;4978510;28;20650;-72
2024/01/30 05:21:39;;;;;;;39.85;17.10;;;;;;;-3.82;nan;102972.22;4976914;28;20073;-71
2024/01/30 05:24:05;;;;;;;38.35;17.20;;;;;;;-3.85;nan;102980.91;4977381;28;20034;-71
2024/01/30 05:26:30;;;;;;;36.25;16.75;;;;;;;-3.95;nan;102963.34;4976531;28;20673;-71
2024/01/30 05:28:57;;;;;;;36.55;16.38;;;;;;;-3.76;nan;103000.28;4976038;28;20039;-71
2024/01/30 05:31:22;;;;;;;38.22;16.95;;;;;;;-3.86;nan;102994.66;4975664;28;20077;-70
2024/01/30 05:33:48;;;;;;;37.88;16.80;;;;;;;-3.86;nan;102991.25;4977899;28;20559;-70
2024/01/30 05:36:13;;;;;;;37.90;17.65;;;;;;;-3.84;nan;103012.63;4979158;28;20018;-70
2024/01/30 05:38:39;;;;;;;39.72;16.60;;;;;;;-3.85;nan;102991.19;4980618;28;20570;-71
2024/01/30 05:41:04;;;;;;;41.88;16.80;;;;;;;-3.84;nan;102997.19;4982254;28;20479;-71
2024/01/30 05:43:30;;;;;;;36.13;16.52;;;;;;;-3.96;nan;102983.09;4980905;28;20045;-71
2024/01/30 05:45:55;;;;;;;34.63;16.48;;;;;;;-3.95;nan;102986.50;4981172;28;20037;-71
2024/01/30 05:48:21;;;;;;;37.72;16.52;;;;;;;-3.85;nan;102995.50;4982970;28;20485;-71
2024/01/30 05:50:47;;;;;;;36.97;17.08;;;;;;;-3.83;nan;102998.88;4981400;28;20022;-70
2024/01/30 05:53:12;;;;;;;40.88;17.10;;;;;;;-3.84;nan;102992.03;4968573;28;20034;-72
2024/01/30 05:55:37;;;;;;;35.95;16.08;;;;;;;-3.76;nan;103008.00;4981995;28;20026;-71
2024/01/30 05:58:03;;;;;;;39.58;15.73;;;;;;;-3.81;nan;102997.03;4948130;28;20082;-72
2024/01/30 06:00:29;;;;;;;38.63;16.27;;;;;;;-3.73;nan;103012.16;4943711;28;20050;-71
2024/01/30 06:02:55;;;;;;;35.92;16.42;;;;;;;-3.86;nan;102991.25;4941758;29;20027;-70
2024/01/30 06:05:20;;;;;;;37.05;15.93;;;;;;;-3.82;nan;102997.94;4942364;28;20050;-71
2024/01/30 06:07:45;;;;;;;35.60;16.17;;;;;;;-3.86;nan;102997.22;4943105;28;20023;-69
2024/01/30 06:10:11;;;;;;;36.67;16.75;;;;;;;-3.83;nan;103004.00;4942287;28;20477;-71
2024/01/30 06:12:36;;;;;;;33.90;16.27;;;;;;;-3.92;nan;102989.78;4943503;28;20166;-70
2024/01/30 06:15:02;;;;;;;34.85;16.40;;;;;;;-3.88;nan;103005.91;4941259;28;20051;-71
2024/01/30 06:17:28;;;;;;;36.88;16.17;;;;;;;-3.90;nan;103003.44;4940315;28;20508;-71
2024/01/30 06:19:54;;;;;;;37.80;16.92;;;;;;;-3.87;nan;103007.63;4957436;28;20476;-71
2024/01/30 06:22:19;;;;;;;36.08;15.77;;;;;;;-3.85;nan;103010.97;4945453;29;20036;-70
2024/01/30 06:24:47;;;;;;;37.20;16.92;;;;;;;-3.81;nan;103020.19;4941008;28;20130;-71
2024/01/30 06:27:13;;;;;;;37.30;17.65;;;;;;;-3.92;nan;102994.09;4940637;28;20035;-71
2024/01/30 06:29:38;;;;;;;36.90;16.83;;;;;;;-4.10;nan;102965.66;4942030;28;20047;-70
2024/01/30 06:32:04;;;;;;;36.90;17.05;;;;;;;-3.78;nan;103011.50;4940121;29;20381;-71
2024/01/30 06:34:30;;;;;;;42.53;17.40;;;;;;;-3.71;nan;103018.06;4938848;28;20152;-72
2024/01/30 06:36:55;;;;;;;50.78;20.27;;;;;;;-3.61;nan;103015.94;4942280;28;20135;-71
2024/01/30 06:39:21;;;;;;;37.92;18.95;;;;;;;-3.50;nan;103016.28;4943629;28;20039;-71
2024/01/30 06:41:46;;;;;;;44.97;20.40;;;;;;;-3.50;nan;103016.28;4944495;29;20031;-72
2024/01/30 06:44:12;;;;;;;46.85;20.25;;;;;;;-3.54;nan;103020.75;4942100;28;20035;-72
2024/01/30 06:46:38;;;;;;;43.50;19.40;;;;;;;-3.55;nan;103023.38;4942285;29;20083;-71
2024/01/30 06:49:03;;;;;;;39.45;18.58;;;;;;;-3.57;nan;103015.72;4944529;28;20077;-70
2024/01/30 06:51:29;;;;;;;41.92;18.98;;;;;;;-3.55;nan;103023.38;4944000;28;20035;-71
2024/01/30 06:53:54;;;;;;;45.47;19.52;;;;;;;-3.55;nan;103031.94;4937435;28;20023;-73
2024/01/30 06:56:20;;;;;;;39.60;19.02;;;;;;;-3.52;nan;103023.25;4945814;28;20445;-71
2024/01/30 06:58:50;;;;;;;42.97;18.77;;;;;;;-3.47;nan;103024.72;4978807;28;20081;-73
2024/01/30 07:01:16;;;;;;;;;;;;;;;-3.45;nan;103028.06;4988113;28;20046;-72
2024/01/30 07:03:42;;;;;;;38.08;16.35;;;;;;;-3.50;nan;103014.53;4983301;28;20012;-69
2024/01/30 07:06:08;;;;;;;39.10;18.15;;;;;;;-3.47;nan;103008.41;4978360;28;20031;-72
2024/01/30 07:08:33;;;;;;;40.83;17.40;;;;;;;-3.30;nan;103029.13;4978626;28;20037;-71
2024/01/30 07:10:59;;;;;;;40.60;17.50;;;;;;;-3.33;nan;103013.78;4979402;28;20030;-72
2024/01/30 07:13:24;;;;;;;43.08;18.23;;;;;;;-3.32;nan;103009.50;4983585;28;20141;-72
2024/01/30 07:15:50;;;;;;;35.70;16.95;;;;;;;-3.24;nan;103015.13;4979703;28;20030;-72
2024/01/30 07:18:15;;;;;;;39.90;17.25;;;;;;;-3.12;nan;103031.75;4977349;28;20023;-71
2024/01/30 07:20:46;;;;;;;38.60;17.60;;;;;;;-3.18;nan;103014.00;4985183;28;20026;-72
2024/01/30 07:23:13;;;;;;;37.30;17.88;;;;;;;-3.02;nan;103035.56;4976750;28;20037;-71
2024/01/30 07:25:42;;;;;;;37.53;18.00;;;;;;;-3.01;nan;103032.09;4980213;28;20085;-71
2024/01/30 07:28:12;;;;;;;38.22;17.73;;;;;;;-2.96;nan;103035.31;4982343;28;20028;-71
2024/01/30 07:30:38;;;;;;;40.03;18.63;;;;;;;-2.87;nan;103037.47;4981186;28;20022;-70
2024/01/30 07:33:03;;;;;;;33.80;17.20;;;;;;;-2.80;nan;103038.84;4980349;28;20041;-71
2024/01/30 07:35:29;;;;;;;37.88;17.85;;;;;;;-2.34;nan;103096.91;4982902;28;20048;-71
2024/01/30 07:37:54;;;;;;;45.47;19.05;;;;;;;-2.81;nan;103019.09;4986802;28;20101;-71
2024/01/30 07:40:19;;;;;;;41.58;19.38;;;;;;;-2.71;nan;103029.81;4969594;28;20053;-71
2024/01/30 07:42:45;;;;;;;39.63;18.27;;;;;;;-2.52;nan;103042.66;4966561;28;20102;-72
2024/01/30 07:45:10;;;;;;;43.00;19.50;;;;;;;-2.44;nan;103042.28;4984736;28;20053;-71
2024/01/30 07:47:36;;;;;;;42.80;19.63;;;;;;;-2.38;nan;103045.41;4965780;28;20035;-71
2024/01/30 07:50:01;;;;;;;41.22;17.15;;;;;;;-2.31;nan;103040.78;4980045;28;20030;-71
2024/01/30 07:52:26;;;;;;;40.20;17.48;;;;;;;;;;4983053;28;20029;-71
2024/01/30 07:54:52;;;;;;;40.08;18.00;;;;;;;;;;4981886;28;20057;-71
2024/01/30 07:57:17;;;;;;;41.90;18.15;;;;;;;;;;4978764;28;20046;-71
2024/01/30 07:59:45;;;;;;;39.85;18.55;;;;;;;;;;4982027;28;20608;-71
2024/01/30 08:02:14;;;;;;;44.30;20.02;;;;;;;;;;4985961;28;20030;-69
2024/01/30 08:04:39;;;;;;;30.80;14.10;;;;;;;;;;4985011;28;20026;-70
2024/01/30 08:07:05;;;;;;;43.72;19.73;;;;;;;;;;4979128;28;20027;-71
2024/01/30 08:09:30;;;;;;;45.25;20.25;;;;;;;;;;4971124;28;20031;-70
2024/01/30 08:11:58;;;;;;;43.70;18.50;;;;;;;;;;4983210;28;20365;-68
2024/01/30 08:14:26;;;;;;;37.67;18.60;;;;;;;;;;4978213;28;20042;-69
2024/01/30 08:16:52;;;;;;;43.47;19.15;;;;;;;;;;4969088;28;20081;-69
2024/01/30 08:19:17;;;;;;;39.27;18.37;;;;;;;;;;4977982;28;20050;-68
2024/01/30 08:21:43;;;;;;;36.60;17.45;;;;;;;;;;4982819;28;20276;-69
2024/01/30 08:24:08;;;;;;;39.35;18.58;;;;;;;;;;4979734;28;20484;-69
2024/01/30 08:26:33;;;;;;;37.53;17.37;;;;;;;;;;4981976;28;20664;-69
2024/01/30 08:29:08;;;;;;;39.00;18.98;;;;;;;;;;4979801;28;20304;-67
2024/01/30 08:31:33;;;;;;;36.85;17.38;;;;;;;;;;4980061;28;20026;-69
2024/01/30 08:33:58;;;;;;;39.63;18.23;;;;;;;;;;4981859;28;20089;-70
2024/01/30 08:36:23;;;;;;;37.70;16.33;;;;;;;;;;4979451;28;20037;-70
2024/01/30 08:38:49;;;;;;;37.72;18.02;;;;;;;;;;4979588;28;20023;-70
2024/01/30 08:41:14;;;;;;;37.67;17.63;;;;;;;;;;4963470;28;20034;-70
2024/01/30 08:43:39;;;;;;;34.43;16.53;;;;;;;;;;4981544;28;20468;-70
2024/01/30 08:46:05;;;;;;;36.30;17.42;;;;;;;;;;4981237;28;20406;-70
2024/01/30 08:48:30;;;;;;;37.73;16.97;;;;;;;;;;4977099;28;20031;-69
2024/01/30 08:50:55;;;;;;;35.53;17.20;;;;;;;;;;4981638;28;21148;-71
2024/01/30 08:53:20;;;;;;;34.97;16.30;;;;;;;;;;4981359;28;20315;-69
2024/01/30 08:55:46;;;;;;;36.30;17.30;;;;;;;;;;4978905;28;20276;-69
2024/01/30 08:58:15;;;;;;;38.15;17.38;;;;;;;;;;4976729;28;20080;-69
2024/01/30 09:00:40;;;;;;;36.80;17.08;;;;;;;;;;4962435;28;20072;-69
2024/01/30 09:03:06;;;;;;;36.33;17.05;;;;;;;;;;4960290;28;20034;-68
2024/01/30 09:05:31;;;;;;;39.50;18.17;;;;;;;;;;4979207;28;20396;-69
2024/01/30 09:07:56;;;;;;;35.33;17.10;;;;;;;0.05;nan;103044.47;4957571;28;20358;-71
2024/01/30 09:10:22;;;;;;;39.75;18.05;;;;;;;0.15;nan;103043.84;4979834;28;20034;-69
2024/01/30 09:12:48;;;;;;;44.03;18.77;;;;;;;0.11;nan;103031.97;4965429;28;20448;-68
2024/01/30 09:15:13;;;;;;;37.72;17.58;;;;;;;0.27;nan;103049.22;4986520;28;20532;-71
2024/01/30 09:17:39;;;;;;;40.92;19.08;;;;;;;0.40;nan;103053.56;4988853;28;20022;-69
2024/01/30 09:20:05;;;;;;;38.58;17.58;;;;;;;0.45;nan;103047.28;4988892;28;20026;-72
2024/01/30 09:22:31;;;;;;;38.00;17.52;;;;;;;0.54;nan;103051.91;4986626;28;20034;-70
2024/01/30 09:24:57;;;;;;;37.95;17.25;;;;;;;0.55;nan;103048.38;4985637;28;20033;-71
2024/01/30 09:27:22;;;;;;;37.38;17.70;;;;;;;0.54;nan;103032.00;4975678;28;20057;-72
2024/01/30 09:29:48;;;;;;;35.00;17.52;;;;;;;0.69;nan;103032.81;4977947;28;20105;-71
2024/01/30 09:32:13;;;;;;;38.08;17.20;;;;;;;0.81;nan;103044.19;4977348;28;20106;-72
2024/01/30 09:34:39;;;;;;;37.30;17.08;;;;;;;0.85;nan;103036.09;4981150;28;20026;-73
2024/01/30 09:37:05;;;;;;;36.17;17.85;;;;;;;0.96;nan;103042.38;4975292;28;20030;-68
2024/01/30 09:39:30;;;;;;;36.42;17.40;;;;;;;0.92;nan;103028.78;4979100;28;20038;-67
2024/01/30 09:42:05;;;;;;;36.15;16.05;;;;;;;1.06;nan;103044.31;4977593;28;20014;-69
2024/01/30 09:44:32;;;;;;;36.00;16.77;;;;;;;1.11;nan;103043.19;4977182;28;20456;-68
2024/01/30 09:47:03;;;;;;;32.95;16.52;;;;;;;1.18;nan;103040.09;4978943;28;20030;-67
2024/01/30 09:49:32;;;;;;;32.00;15.35;;;;;;;0.60;nan;102940.06;4976023;28;20028;-67
2024/01/30 09:51:57;;;;;;;30.52;15.30;;;;;;;1.31;nan;103024.56;4978177;28;20026;-68
2024/01/30 09:54:23;;;;;;;31.77;15.70;;;;;;;1.34;nan;103018.34;4978557;28;20038;-68
2024/01/30 09:56:48;;;;;;;28.02;14.23;;;;;;;1.51;nan;103031.09;4978620;28;20072;-67
2024/01/30 09:59:14;;;;;;;33.63;15.48;;;;;;;1.57;nan;103019.44;4975630;28;20160;-68
2024/01/30 10:01:40;;;;;;;30.23;15.73;;;;;;;1.75;nan;103032.97;4979134;28;20045;-68
2024/01/30 10:04:07;;;;;;;29.05;14.40;;;;;;;1.74;nan;103021.75;4976077;28;20023;-68
2024/01/30 10:06:32;;;;;;;32.92;14.38;;;;;;;1.70;nan;103007.34;4978035;28;20034;-68
2024/01/30 10:08:58;;;;;;;31.30;14.77;;;;;;;1.91;nan;103010.22;4981689;28;20077;-68
2024/01/30 10:11:23;;;;;;;28.48;14.90;;;;;;;1.98;nan;103008.06;4977449;28;20027;-70
2024/01/30 10:13:49;;;;;;;29.30;13.73;;;;;;;2.04;nan;103020.66;4975633;28;20487;-69
2024/01/30 10:16:16;;;;;;;26.60;13.60;;;;;;;2.04;nan;103008.47;4980777;28;20026;-69
2024/01/30 10:18:42;;;;;;;29.17;13.95;;;;;;;2.10;nan;103010.66;4977031;28;20037;-70
2024/01/30 10:21:08;;;;;;;28.50;14.15;;;;;;;2.22;nan;103010.75;4962067;28;20019;-69
2024/01/30 10:23:34;;;;;;;29.63;14.50;;;;;;;2.26;nan;103004.41;4979506;28;20065;-69
2024/01/30 10:25:59;;;;;;;29.58;13.40;;;;;;;2.41;nan;102999.91;4980605;28;20097;-69
2024/01/30 10:28:29;;;;;;;25.50;12.98;;;;;;;2.32;nan;102973.63;4983304;28;20026;-68
2024/01/30 10:31:00;;;;;;;25.40;12.45;;;;;;;2.48;nan;102991.56;4981964;28;20034;-67
2024/01/30 10:33:27;;;;;;;25.73;13.23;;;;;;;2.52;nan;102998.22;4980675;28;20026;-69
2024/01/30 10:36:00;;;;;;;30.95;13.70;;;;;;;2.45;nan;102980.56;4979960;28;20022;-70
2024/01/30 10:38:28;;;;;;;23.60;12.57;;;;;;;2.52;nan;102974.81;4981782;28;20642;-68
2024/01/30 10:40:56;;;;;;;26.52;12.75;;;;;;;2.67;nan;102987.69;4980453;28;20454;-68
2024/01/30 10:43:23;;;;;;;21.33;11.63;;;;;;;2.66;nan;102976.44;4983872;28;20026;-70
2024/01/30 10:45:53;;;;;;;26.70;12.10;;;;;;;2.76;nan;102979.22;4981999;28;20070;-68
2024/01/30 10:48:21;;;;;;;20.48;10.40;;;;;;;2.92;nan;102979.78;4982228;28;20031;-67
2024/01/30 10:50:47;;;;;;;14.32;6.95;;;;;;;3.06;nan;102970.97;4984410;28;20026;-68
2024/01/30 10:53:15;;;;;;;19.00;9.43;;;;;;;3.17;nan;102962.38;4983851;28;20040;-68
2024/01/30 10:55:41;;;;;;;19.67;9.85;;;;;;;3.31;nan;102958.75;4982943;28;20112;-67
2024/01/30 10:58:08;;;;;;;22.42;9.93;;;;;;;3.46;nan;102960.22;4982980;28;20101;-68
2024/01/30 11:00:34;;;;;;;17.55;9.25;;;;;;;3.57;nan;102957.63;4983741;28;20118;-68
2024/01/30 11:03:00;;;;;;;16.75;9.23;;;;;;;3.72;nan;102958.25;4983138;28;20030;-68
2024/01/30 11:05:27;;;;;;;15.20;9.02;;;;;;;3.80;nan;102952.44;4983132;28;20031;-67
2024/01/30 11:07:53;;;;;;;14.18;8.05;;;;;;;3.84;nan;102938.25;4983342;28;20023;-68
2024/01/30 11:10:18;;;;;;;14.88;8.13;;;;;;;4.02;nan;102944.66;4983864;28;20366;-67
2024/01/30 11:12:46;;;;;;;20.00;9.32;;;;;;;4.18;nan;102949.50;4984221;28;20027;-67
2024/01/30 11:15:15;;;;;;;18.15;9.15;;;;;;;4.24;nan;102943.81;4981092;28;20030;-68
2024/01/30 11:17:52;;;;;;;;;;;;;;;4.20;nan;102952.00;4980842;28;20030;-68
2024/01/30 11:20:25;;;;;;;16.73;8.65;;;;;;;4.16;nan;102943.56;4983123;28;19914;-67
2024/01/30 11:22:55;;;;;;;18.08;8.68;;;;;;;4.17;nan;102931.38;4981344;28;20459;-65
2024/01/30 11:25:22;;;;;;;17.25;8.90;;;;;;;4.27;nan;102924.47;4980730;28;20622;-68
2024/01/30 11:27:50;;;;;;;17.10;9.00;;;;;;;4.52;nan;102940.78;4980014;28;20495;-68
2024/01/30 11:30:30;;;;;;;13.38;7.85;;;;;;;4.59;nan;102927.13;4981163;28;20034;-69
2024/01/30 11:33:12;;;;;;;11.27;6.15;;;;;;;4.75;nan;102931.94;4977780;28;20034;-69
2024/01/30 11:35:43;;;;;;;9.93;5.20;;;;;;;4.62;nan;102881.69;4965741;28;20100;-67
2024/01/30 11:38:10;;;;;;;11.10;6.40;;;;;;;4.96;nan;102921.56;4980991;28;20010;-67